createdAt,value
2022-08-24T00:01:19.169Z,79.80
2022-08-24T00:03:47.192Z,80.00
2022-08-24T00:06:19.421Z,80.20
2022-08-24T00:08:49.222Z,80.70
2022-08-24T00:11:16.946Z,80.90
2022-08-24T00:13:44.545Z,81.20
2022-08-24T00:16:12.337Z,82.50
2022-08-24T00:18:39.841Z,83.60
2022-08-24T00:21:08.146Z,84.50
2022-08-24T00:23:36.163Z,85.00
2022-08-24T00:26:04.281Z,85.40
2022-08-24T00:28:31.866Z,85.50
2022-08-24T00:30:59.064Z,85.80
2022-08-24T00:33:26.462Z,86.10
2022-08-24T00:35:53.415Z,86.50
2022-08-24T00:38:20.319Z,86.80
2022-08-24T00:40:49.299Z,86.80
2022-08-24T00:43:24.181Z,87.30
2022-08-24T00:45:54.161Z,87.70
2022-08-24T00:48:27.962Z,89.00
2022-08-24T00:51:04.944Z,90.30
2022-08-24T00:53:47.805Z,90.70
2022-08-24T00:56:35.116Z,91.20
2022-08-24T00:59:11.557Z,92.10
2022-08-24T01:01:39.257Z,92.70
2022-08-24T01:04:12.106Z,93.00
2022-08-24T01:06:39.107Z,93.00
2022-08-24T01:09:06.840Z,92.50
2022-08-24T01:11:35.695Z,92.50
2022-08-24T01:14:03.879Z,93.20
2022-08-24T01:16:49.967Z,95.00
2022-08-24T01:19:55.615Z,95.70
2022-08-24T01:22:46.637Z,96.60
2022-08-24T01:25:14.492Z,97.20
2022-08-24T01:27:43.657Z,98.00
2022-08-24T01:30:14.310Z,98.50
2022-08-24T01:32:58.512Z,98.50
2022-08-24T01:35:26.468Z,98.70
2022-08-24T01:37:58.723Z,98.90
2022-08-24T01:40:34.874Z,99.30
2022-08-24T01:43:04.152Z,99.70
2022-08-24T01:45:31.192Z,99.90
2022-08-24T01:47:59.826Z,99.90
2022-08-24T01:50:27.039Z,99.90
2022-08-24T01:53:04.749Z,99.90
2022-08-24T01:55:33.286Z,99.90
2022-08-24T01:58:00.632Z,99.90
2022-08-24T02:00:29.745Z,99.90
2022-08-24T02:02:57.327Z,99.90
2022-08-24T02:05:25.611Z,99.90
2022-08-24T02:07:53.033Z,99.90
2022-08-24T02:10:21.926Z,99.90
2022-08-24T02:12:57.782Z,99.90
2022-08-24T02:15:31.550Z,99.90
2022-08-24T02:17:59.762Z,99.90
2022-08-24T02:20:27.421Z,99.90
2022-08-24T02:22:55.225Z,99.90
2022-08-24T02:25:22.163Z,99.90
2022-08-24T02:27:49.340Z,99.90
2022-08-24T02:30:18.032Z,99.90
2022-08-24T02:32:45.221Z,99.90
2022-08-24T02:35:12.777Z,99.90
2022-08-24T02:37:43.391Z,99.90
2022-08-24T02:40:13.529Z,99.90
2022-08-24T02:42:41.080Z,99.90
2022-08-24T02:45:09.754Z,99.90
2022-08-24T02:47:38.862Z,99.90
2022-08-24T02:50:12.289Z,99.90
2022-08-24T02:52:40.765Z,99.90
2022-08-24T02:55:12.151Z,99.90
2022-08-24T02:57:39.894Z,99.90
2022-08-24T03:00:12.941Z,99.90
2022-08-24T03:02:51.520Z,99.90
2022-08-24T03:05:19.493Z,99.90
2022-08-24T03:07:46.941Z,99.90
2022-08-24T03:10:14.419Z,99.90
2022-08-24T03:12:41.746Z,99.90
2022-08-24T03:15:11.334Z,99.90
2022-08-24T03:17:39.980Z,99.90
2022-08-24T03:20:14.969Z,99.90
2022-08-24T03:22:42.834Z,99.90
2022-08-24T03:25:12.226Z,99.90
2022-08-24T03:27:39.805Z,99.90
2022-08-24T03:30:12.739Z,99.90
2022-08-24T03:32:42.246Z,99.90
2022-08-24T03:35:11.537Z,99.90
2022-08-24T03:37:38.556Z,99.90
2022-08-24T03:40:07.848Z,99.90
2022-08-24T03:42:49.736Z,99.90
2022-08-24T03:45:17.411Z,99.90
2022-08-24T03:47:45.420Z,99.90
2022-08-24T03:50:13.608Z,99.90
2022-08-24T03:52:42.058Z,99.90
2022-08-24T03:55:10.814Z,99.90
2022-08-24T03:57:38.064Z,99.90
2022-08-24T04:00:10.894Z,99.90
2022-08-24T04:02:50.794Z,99.90
2022-08-24T04:05:21.198Z,99.90
2022-08-24T04:07:48.181Z,99.90
2022-08-24T04:10:15.073Z,99.90
2022-08-24T04:12:42.344Z,99.90
2022-08-24T04:15:10.200Z,99.90
2022-08-24T04:17:37.329Z,99.90
2022-08-24T04:20:07.602Z,99.90
2022-08-24T04:22:36.820Z,99.90
2022-08-24T04:25:09.558Z,99.90
2022-08-24T04:27:40.889Z,99.90
2022-08-24T04:30:09.810Z,99.90
2022-08-24T04:33:03.735Z,99.90
2022-08-24T04:35:30.977Z,99.90
2022-08-24T04:37:58.794Z,99.90
2022-08-24T04:40:25.838Z,99.90
2022-08-24T04:42:53.061Z,99.90
2022-08-24T04:45:20.192Z,99.90
2022-08-24T04:47:47.197Z,99.90
2022-08-24T04:50:14.181Z,99.90
2022-08-24T04:52:43.233Z,99.90
2022-08-24T04:55:10.918Z,99.90
2022-08-24T04:57:38.163Z,99.90
2022-08-24T05:00:09.536Z,99.90
2022-08-24T05:02:44.888Z,99.90
2022-08-24T05:05:14.355Z,99.90
2022-08-24T05:07:41.972Z,99.90
2022-08-24T05:10:11.090Z,99.90
2022-08-24T05:12:38.350Z,99.90
2022-08-24T05:15:09.892Z,99.90
2022-08-24T05:17:41.386Z,99.90
2022-08-24T05:20:11.728Z,99.90
2022-08-24T05:22:39.331Z,99.90
2022-08-24T05:25:06.645Z,99.90
2022-08-24T05:27:35.224Z,99.90
2022-08-24T05:30:03.176Z,99.90
2022-08-24T05:32:30.338Z,99.90
2022-08-24T05:35:01.333Z,99.90
2022-08-24T05:37:28.557Z,99.90
2022-08-24T05:40:16.837Z,99.90
2022-08-24T05:42:48.480Z,99.90
2022-08-24T05:45:16.422Z,99.90
2022-08-24T05:47:43.533Z,99.90
2022-08-24T05:50:37.223Z,99.90
2022-08-24T05:53:04.764Z,99.90
2022-08-24T05:55:31.974Z,99.90
2022-08-24T05:57:59.148Z,99.90
2022-08-24T06:00:26.882Z,99.90
2022-08-24T06:02:54.165Z,99.90
2022-08-24T06:05:22.279Z,99.90
2022-08-24T06:07:49.868Z,99.90
2022-08-24T06:10:35.953Z,99.90
2022-08-24T06:13:05.570Z,99.90
2022-08-24T06:15:32.988Z,99.90
2022-08-24T06:18:00.158Z,99.90
2022-08-24T06:20:27.312Z,99.90
2022-08-24T06:22:54.518Z,99.90
2022-08-24T06:25:42.158Z,99.90
2022-08-24T06:28:09.249Z,99.90
2022-08-24T06:30:37.630Z,99.90
2022-08-24T06:33:15.480Z,99.90
2022-08-24T06:35:47.012Z,99.90
2022-08-24T06:38:14.672Z,99.90
2022-08-24T06:40:42.849Z,99.90
2022-08-24T06:43:11.035Z,99.90
2022-08-24T06:45:47.371Z,99.90
2022-08-24T06:48:17.209Z,99.90
2022-08-24T06:50:45.150Z,99.90
2022-08-24T06:53:14.889Z,99.90
2022-08-24T06:55:50.593Z,99.90
2022-08-24T06:58:18.995Z,99.90
2022-08-24T07:00:47.989Z,99.90
2022-08-24T07:03:16.742Z,99.90
2022-08-24T07:05:55.437Z,99.90
2022-08-24T07:08:37.630Z,99.90
2022-08-24T07:11:09.029Z,99.90
2022-08-24T07:13:36.068Z,99.90
2022-08-24T07:16:04.821Z,99.90
2022-08-24T07:18:33.828Z,99.90
2022-08-24T07:21:04.141Z,99.90
2022-08-24T07:23:48.784Z,99.90
2022-08-24T07:26:21.547Z,99.90
2022-08-24T07:29:05.044Z,99.90
2022-08-24T07:31:40.738Z,99.90
2022-08-24T07:34:16.839Z,99.90
2022-08-24T07:36:45.030Z,99.90
2022-08-24T07:39:12.633Z,99.90
2022-08-24T07:42:02.559Z,99.90
2022-08-24T07:44:31.669Z,99.90
2022-08-24T07:47:04.101Z,99.90
2022-08-24T07:49:42.767Z,99.90
2022-08-24T07:52:10.628Z,99.90
2022-08-24T07:54:37.877Z,99.50
2022-08-24T07:57:06.568Z,98.10
2022-08-24T07:59:36.125Z,97.80
2022-08-24T08:02:05.146Z,97.30
2022-08-24T08:04:32.207Z,96.30
2022-08-24T08:07:01.791Z,96.00
2022-08-24T08:09:31.427Z,96.30
2022-08-24T08:11:59.281Z,96.10
2022-08-24T08:14:26.457Z,95.60
2022-08-24T08:16:54.029Z,94.40
2022-08-24T08:19:21.038Z,94.80
2022-08-24T08:22:10.310Z,94.50
2022-08-24T08:24:56.785Z,93.70
2022-08-24T08:27:25.139Z,93.40
2022-08-24T08:29:52.537Z,93.30
2022-08-24T08:32:20.091Z,92.50
2022-08-24T08:34:51.517Z,91.90
2022-08-24T08:37:18.897Z,91.70
2022-08-24T08:39:46.094Z,91.10
2022-08-24T08:42:24.140Z,90.60
2022-08-24T08:45:22.512Z,90.60
2022-08-24T08:48:32.081Z,90.70
2022-08-24T08:51:38.514Z,89.50
2022-08-24T08:54:32.297Z,88.20
2022-08-24T08:57:23.496Z,87.20
2022-08-24T09:00:10.729Z,86.70
2022-08-24T09:02:56.521Z,85.20
2022-08-24T09:09:10.075Z,82.70
2022-08-24T09:11:54.574Z,80.80
2022-08-24T09:14:57.217Z,80.40
2022-08-24T09:18:18.137Z,79.20
2022-08-24T09:21:16.491Z,79.00
2022-08-24T09:23:52.716Z,78.30
2022-08-24T09:26:32.976Z,77.60
2022-08-24T09:29:16.853Z,77.50
2022-08-24T09:31:57.127Z,75.80
2022-08-24T09:34:50.712Z,75.60
2022-08-24T09:37:57.898Z,74.00
2022-08-24T09:40:45.053Z,73.70
2022-08-24T09:43:33.352Z,73.70
2022-08-24T09:46:31.365Z,72.00
2022-08-24T09:49:34.490Z,72.10
2022-08-24T09:52:37.850Z,71.00
2022-08-24T09:55:26.822Z,72.40
2022-08-24T09:58:15.365Z,69.10
2022-08-24T10:01:06.284Z,68.10
2022-08-24T10:04:29.495Z,68.60
2022-08-24T10:08:15.697Z,68.30
2022-08-24T10:11:12.173Z,66.10
2022-08-24T10:13:53.545Z,66.80
2022-08-24T10:16:57.930Z,65.80
2022-08-24T10:20:10.341Z,65.10
2022-08-24T10:23:22.086Z,62.70
2022-08-24T10:25:57.241Z,62.40
2022-08-24T10:28:24.345Z,62.50
2022-08-24T10:31:12.950Z,63.00
2022-08-24T10:34:10.973Z,63.10
2022-08-24T10:36:56.619Z,63.10
2022-08-24T10:40:22.290Z,60.70
2022-08-24T10:43:34.921Z,59.80
2022-08-24T10:46:43.286Z,60.10
2022-08-24T10:49:39.271Z,59.10
2022-08-24T10:52:53.310Z,59.50
2022-08-24T10:55:26.346Z,58.90
2022-08-24T10:58:38.069Z,58.40
2022-08-24T11:01:24.027Z,61.30
2022-08-24T11:04:14.242Z,59.10
2022-08-24T11:07:23.028Z,57.50
2022-08-24T11:10:01.352Z,57.20
2022-08-24T11:12:42.783Z,57.00
2022-08-24T11:15:18.618Z,55.10
2022-08-24T11:18:01.568Z,53.70
2022-08-24T11:20:47.092Z,54.00
2022-08-24T11:23:22.580Z,55.00
2022-08-24T11:26:03.605Z,54.30
2022-08-24T11:28:40.939Z,54.30
2022-08-24T11:31:29.605Z,53.50
2022-08-24T11:34:17.625Z,53.50
2022-08-24T11:36:44.765Z,53.30
2022-08-24T11:39:17.762Z,52.90
2022-08-24T11:42:35.791Z,52.90
2022-08-24T11:45:10.359Z,53.00
2022-08-24T11:48:05.385Z,53.20
2022-08-24T11:50:45.252Z,52.90
2022-08-24T11:56:25.904Z,53.50
2022-08-24T11:59:08.322Z,53.30
2022-08-24T12:01:51.646Z,53.60
2022-08-24T12:04:42.787Z,54.10
2022-08-24T12:07:51.136Z,54.30
2022-08-24T12:10:46.984Z,54.10
2022-08-24T12:14:15.142Z,53.80
2022-08-24T12:17:03.123Z,54.30
2022-08-24T12:19:36.037Z,54.70
2022-08-24T12:22:07.548Z,54.50
2022-08-24T12:24:54.448Z,54.70
2022-08-24T12:27:33.402Z,55.40
2022-08-24T12:30:15.786Z,54.90
2022-08-24T12:33:03.092Z,54.70
2022-08-24T12:35:34.521Z,55.00
2022-08-24T12:38:22.089Z,56.10
2022-08-24T12:41:19.823Z,55.40
2022-08-24T12:43:56.503Z,55.10
2022-08-24T12:46:25.888Z,55.10
2022-08-24T12:49:07.528Z,55.70
2022-08-24T12:52:21.304Z,54.80
2022-08-24T12:55:19.772Z,55.50
2022-08-24T12:58:53.967Z,54.90
2022-08-24T13:01:27.877Z,55.00
2022-08-24T13:04:31.462Z,55.10
2022-08-24T13:07:27.344Z,55.50
2022-08-24T13:09:59.917Z,54.80
2022-08-24T13:12:41.977Z,52.70
2022-08-24T13:15:24.143Z,51.60
2022-08-24T13:18:03.306Z,53.10
2022-08-24T13:20:36.750Z,51.40
2022-08-24T13:23:18.859Z,51.20
2022-08-24T13:25:51.365Z,49.80
2022-08-24T13:28:21.300Z,48.30
2022-08-24T13:30:54.069Z,48.80
2022-08-24T13:33:34.825Z,50.10
2022-08-24T13:36:08.346Z,49.90
2022-08-24T13:38:35.134Z,48.90
2022-08-24T13:41:08.083Z,48.60
2022-08-24T13:43:58.585Z,48.00
2022-08-24T13:46:50.165Z,48.20
2022-08-24T13:50:08.108Z,46.60
2022-08-24T13:53:32.820Z,46.10
2022-08-24T13:56:36.812Z,47.60
2022-08-24T13:59:22.590Z,46.30
2022-08-24T14:02:08.185Z,46.10
2022-08-24T14:04:47.383Z,45.80
2022-08-24T14:07:22.735Z,44.60
2022-08-24T14:10:31.628Z,44.80
2022-08-24T14:13:26.459Z,46.30
2022-08-24T14:16:47.885Z,46.40
2022-08-24T14:19:29.374Z,46.10
2022-08-24T14:22:33.218Z,45.20
2022-08-24T14:25:17.465Z,44.30
2022-08-24T14:27:50.413Z,44.80
2022-08-24T14:30:20.370Z,44.20
2022-08-24T14:32:59.157Z,44.50
2022-08-24T14:35:36.532Z,44.20
2022-08-24T14:38:24.142Z,44.90
2022-08-24T14:41:16.830Z,45.20
2022-08-24T14:43:49.788Z,44.40
2022-08-24T14:46:29.339Z,44.90
2022-08-24T14:49:27.877Z,45.30
2022-08-24T14:52:24.278Z,44.80
2022-08-24T14:55:19.897Z,46.50
2022-08-24T14:58:29.143Z,45.80
2022-08-24T15:01:14.678Z,45.70
2022-08-24T15:04:37.048Z,46.10
2022-08-24T15:07:30.065Z,45.90
2022-08-24T15:09:59.641Z,46.50
2022-08-24T15:12:44.229Z,45.80
2022-08-24T15:15:34.023Z,45.60
2022-08-24T15:18:20.064Z,45.60
2022-08-24T15:21:29.781Z,46.60
2022-08-24T15:24:16.604Z,47.40
2022-08-24T15:27:21.793Z,46.30
2022-08-24T15:29:57.381Z,46.60
2022-08-24T15:32:40.911Z,46.50
2022-08-24T15:35:08.000Z,46.30
2022-08-24T15:37:39.672Z,46.00
2022-08-24T15:40:24.824Z,45.00
2022-08-24T15:42:51.998Z,45.40
2022-08-24T15:45:21.000Z,45.60
2022-08-24T15:47:51.932Z,46.40
2022-08-24T15:50:33.816Z,46.90
2022-08-24T15:53:25.703Z,46.10
2022-08-24T15:55:53.400Z,46.20
2022-08-24T15:58:32.176Z,46.20
2022-08-24T16:01:31.010Z,46.20
2022-08-24T16:04:08.927Z,46.80
2022-08-24T16:06:46.366Z,46.40
2022-08-24T16:09:19.556Z,45.70
2022-08-24T16:12:09.862Z,46.10
2022-08-24T16:14:47.671Z,46.60
2022-08-24T16:17:42.284Z,46.00
2022-08-24T16:20:34.063Z,46.70
2022-08-24T16:23:09.760Z,46.20
2022-08-24T16:25:47.008Z,46.30
2022-08-24T16:28:23.072Z,46.30
2022-08-24T16:31:00.834Z,46.40
2022-08-24T16:33:37.393Z,46.40
2022-08-24T16:36:15.611Z,46.80
2022-08-24T16:38:49.001Z,47.60
2022-08-24T16:41:20.528Z,47.40
2022-08-24T16:43:47.952Z,47.10
2022-08-24T16:46:21.264Z,46.60
2022-08-24T16:48:48.524Z,47.20
2022-08-24T16:51:15.392Z,47.30
2022-08-24T16:53:42.805Z,47.60
2022-08-24T16:56:12.490Z,48.00
2022-08-24T16:58:42.091Z,48.20
2022-08-24T17:01:09.081Z,48.60
2022-08-24T17:03:36.144Z,49.10
2022-08-24T17:06:03.148Z,48.60
2022-08-24T17:08:34.602Z,49.20
2022-08-24T17:11:04.379Z,49.00
2022-08-24T17:13:49.017Z,49.10
2022-08-24T17:16:17.038Z,49.10
2022-08-24T17:18:44.159Z,49.30
2022-08-24T17:21:11.113Z,49.10
2022-08-24T17:23:40.787Z,49.30
2022-08-24T17:26:20.127Z,49.40
2022-08-24T17:28:51.734Z,49.40
2022-08-24T17:31:18.740Z,49.80
2022-08-24T17:33:45.700Z,50.00
2022-08-24T17:36:21.833Z,50.20
2022-08-24T17:38:55.881Z,50.30
2022-08-24T17:41:25.487Z,50.20
2022-08-24T17:43:53.363Z,50.30
2022-08-24T17:46:20.774Z,50.30
2022-08-24T17:48:48.234Z,50.50
2022-08-24T17:51:15.907Z,50.40
2022-08-24T17:53:42.897Z,50.50
2022-08-24T17:56:13.047Z,50.80
2022-08-24T17:59:00.553Z,50.90
2022-08-24T18:01:27.701Z,51.20
2022-08-24T18:03:54.737Z,51.20
2022-08-24T18:06:23.969Z,51.50
2022-08-24T18:08:52.009Z,51.70
2022-08-24T18:11:21.598Z,51.70
2022-08-24T18:13:51.343Z,52.00
2022-08-24T18:16:21.304Z,52.10
2022-08-24T18:18:51.873Z,52.20
2022-08-24T18:21:20.114Z,53.00
2022-08-24T18:23:48.512Z,52.50
2022-08-24T18:26:25.953Z,52.70
2022-08-24T18:29:00.432Z,52.80
2022-08-24T18:31:31.062Z,52.80
2022-08-24T18:33:58.027Z,52.90
2022-08-24T18:36:25.013Z,53.20
2022-08-24T18:38:53.265Z,53.40
2022-08-24T18:41:21.105Z,53.50
2022-08-24T18:43:48.705Z,53.60
2022-08-24T18:46:15.826Z,53.80
2022-08-24T18:48:42.743Z,54.00
2022-08-24T18:51:13.166Z,54.20
2022-08-24T18:53:40.161Z,55.00
2022-08-24T18:56:12.278Z,54.70
2022-08-24T18:58:40.305Z,54.90
2022-08-24T19:01:07.404Z,54.90
2022-08-24T19:03:35.015Z,55.20
2022-08-24T19:06:02.099Z,55.40
2022-08-24T19:08:42.041Z,55.50
2022-08-24T19:11:10.045Z,55.80
2022-08-24T19:13:39.867Z,56.00
2022-08-24T19:16:13.124Z,56.00
2022-08-24T19:18:40.275Z,56.30
2022-08-24T19:21:07.432Z,56.30
2022-08-24T19:23:36.141Z,56.30
2022-08-24T19:26:04.250Z,56.30
2022-08-24T19:28:31.840Z,56.30
2022-08-24T19:31:02.252Z,56.60
2022-08-24T19:33:38.026Z,56.60
2022-08-24T19:36:06.105Z,56.90
2022-08-24T19:38:33.081Z,56.90
2022-08-24T19:41:00.835Z,57.20
2022-08-24T19:43:29.375Z,57.30
2022-08-24T19:46:08.506Z,57.50
2022-08-24T19:48:39.738Z,57.70
2022-08-24T19:51:11.603Z,57.90
2022-08-24T19:53:39.192Z,58.30
2022-08-24T19:56:07.415Z,58.40
2022-08-24T19:58:57.105Z,58.80
2022-08-24T20:01:34.451Z,58.80
2022-08-24T20:04:04.365Z,58.60
2022-08-24T20:06:36.261Z,58.80
2022-08-24T20:09:04.780Z,58.90
2022-08-24T20:11:32.102Z,58.90
2022-08-24T20:13:59.131Z,58.80
2022-08-24T20:16:31.945Z,58.80
2022-08-24T20:19:00.631Z,59.00
2022-08-24T20:21:30.018Z,59.50
2022-08-24T20:24:05.520Z,59.10
2022-08-24T20:26:41.834Z,59.20
2022-08-24T20:29:09.741Z,59.40
2022-08-24T20:31:36.963Z,59.50
2022-08-24T20:34:04.757Z,59.80
2022-08-24T20:36:39.984Z,59.90
2022-08-24T20:39:11.161Z,59.90
2022-08-24T20:41:38.988Z,59.90
2022-08-24T20:44:09.040Z,60.10
2022-08-24T20:46:38.311Z,60.30
2022-08-24T20:49:07.678Z,60.60
2022-08-24T20:51:41.488Z,60.50
2022-08-24T20:54:10.248Z,60.90
2022-08-24T20:56:38.754Z,61.10
2022-08-24T20:59:09.724Z,61.90
2022-08-24T21:01:38.268Z,61.50
2022-08-24T21:04:05.725Z,61.70
2022-08-24T21:06:34.185Z,61.70
2022-08-24T21:09:02.690Z,62.00
2022-08-24T21:11:30.244Z,62.40
2022-08-24T21:13:57.328Z,62.40
2022-08-24T21:16:24.474Z,62.60
2022-08-24T21:18:51.611Z,62.80
2022-08-24T21:21:19.517Z,63.10
2022-08-24T21:23:46.390Z,63.60
2022-08-24T21:26:23.713Z,63.70
2022-08-24T21:28:50.857Z,64.00
2022-08-24T21:31:18.144Z,64.50
2022-08-24T21:34:03.558Z,64.30
2022-08-24T21:36:31.805Z,64.60
2022-08-24T21:38:59.842Z,65.00
2022-08-24T21:41:29.438Z,65.30
2022-08-24T21:43:57.335Z,65.60
2022-08-24T21:46:32.614Z,66.10
2022-08-24T21:49:00.415Z,66.40
2022-08-24T21:51:27.949Z,67.10
2022-08-24T21:53:59.470Z,67.30
2022-08-24T21:56:30.898Z,67.50
2022-08-24T21:58:58.322Z,68.10
2022-08-24T22:01:25.289Z,68.30
2022-08-24T22:03:52.346Z,68.90
2022-08-24T22:06:19.336Z,69.20
2022-08-24T22:08:46.291Z,69.90
2022-08-24T22:11:18.026Z,70.00
2022-08-24T22:13:46.760Z,69.80
2022-08-24T22:16:13.774Z,70.10
2022-08-24T22:18:41.539Z,70.20
2022-08-24T22:21:12.912Z,70.20
2022-08-24T22:23:40.878Z,70.50
2022-08-24T22:26:08.484Z,70.80
2022-08-24T22:28:38.344Z,71.20
2022-08-24T22:31:22.434Z,71.40
2022-08-24T22:33:49.687Z,71.50
2022-08-24T22:36:17.344Z,71.70
2022-08-24T22:38:45.210Z,72.00
2022-08-24T22:41:12.325Z,72.30
2022-08-24T22:43:57.841Z,72.50
2022-08-24T22:46:26.380Z,73.00
2022-08-24T22:48:54.316Z,73.40
2022-08-24T22:51:21.984Z,73.70
2022-08-24T22:53:49.463Z,74.10
2022-08-24T22:56:24.011Z,74.20
2022-08-24T22:58:51.752Z,74.60
2022-08-24T23:01:21.005Z,74.70
2022-08-24T23:03:49.702Z,75.10
2022-08-24T23:06:17.439Z,75.30
2022-08-24T23:08:44.824Z,75.40
2022-08-24T23:11:12.499Z,75.60
2022-08-24T23:13:39.768Z,76.00
2022-08-24T23:16:10.253Z,76.10
2022-08-24T23:18:56.460Z,76.30
2022-08-24T23:21:23.713Z,76.60
2022-08-24T23:23:51.005Z,76.90
2022-08-24T23:26:18.547Z,77.50
2022-08-24T23:28:46.926Z,77.60
2022-08-24T23:31:20.062Z,77.70
2022-08-24T23:33:47.508Z,77.90
2022-08-24T23:36:21.465Z,78.40
2022-08-24T23:38:52.487Z,78.60
2022-08-24T23:41:23.717Z,79.20
2022-08-24T23:43:50.666Z,79.30
2022-08-24T23:46:17.959Z,79.50
2022-08-24T23:48:51.010Z,79.80
2022-08-24T23:51:23.098Z,80.40
2022-08-24T23:53:50.809Z,80.50
2022-08-24T23:56:31.833Z,80.60
2022-08-24T23:59:06.634Z,81.10
